sensor_id;sensor_type;location;lat;lon;timestamp;pressure;altitude;pressure_sealevel;temperature;humidity
26563;BME280;14217;50.986;5.826;2023-01-31T00:01:09;101916.44;;;16.81;40.16
26563;BME280;14217;50.986;5.826;2023-01-31T00:06:26;101912.91;;;16.82;40.35
26563;BME280;14217;50.986;5.826;2023-01-31T00:11:29;101919.06;;;16.81;40.29
26563;BME280;14217;50.986;5.826;2023-01-31T00:16:32;101911.19;;;16.77;40.29
26563;BME280;14217;50.986;5.826;2023-01-31T00:21:34;101929.63;;;16.83;39.99
26563;BME280;14217;50.986;5.826;2023-01-31T00:26:36;101922.63;;;16.79;40.08
26563;BME280;14217;50.986;5.826;2023-01-31T00:31:39;101910.28;;;16.81;40.27
26563;BME280;14217;50.986;5.826;2023-01-31T00:36:41;101927.00;;;16.80;40.31
26563;BME280;14217;50.986;5.826;2023-01-31T00:41:43;101918.19;;;16.82;40.15
26563;BME280;14217;50.986;5.826;2023-01-31T00:46:45;101926.13;;;16.79;40.04
26563;BME280;14217;50.986;5.826;2023-01-31T00:51:47;101904.94;;;16.82;39.93
26563;BME280;14217;50.986;5.826;2023-01-31T00:56:49;101919.06;;;16.80;40.17
26563;BME280;14217;50.986;5.826;2023-01-31T01:01:51;101908.47;;;16.80;39.97
26563;BME280;14217;50.986;5.826;2023-01-31T01:06:53;101915.56;;;16.81;40.09
26563;BME280;14217;50.986;5.826;2023-01-31T01:11:55;101916.47;;;16.78;40.33
26563;BME280;14217;50.986;5.826;2023-01-31T01:16:58;101911.19;;;16.78;40.33
26563;BME280;14217;50.986;5.826;2023-01-31T01:22:00;101906.78;;;16.76;40.10
26563;BME280;14217;50.986;5.826;2023-01-31T01:27:02;101920.00;;;16.77;40.35
26563;BME280;14217;50.986;5.826;2023-01-31T01:32:06;101912.91;;;16.81;40.16
26563;BME280;14217;50.986;5.826;2023-01-31T01:37:08;101916.41;;;16.80;40.19
26563;BME280;14217;50.986;5.826;2023-01-31T01:42:16;101909.41;;;16.77;40.16
26563;BME280;14217;50.986;5.826;2023-01-31T01:47:31;101906.78;;;16.77;40.35
26563;BME280;14217;50.986;5.826;2023-01-31T01:52:41;101893.53;;;16.77;40.27
26563;BME280;14217;50.986;5.826;2023-01-31T01:57:47;101891.81;;;16.76;40.34
26563;BME280;14217;50.986;5.826;2023-01-31T02:02:53;101884.72;;;16.78;40.00
26563;BME280;14217;50.986;5.826;2023-01-31T02:07:57;101895.28;;;16.78;40.35
26563;BME280;14217;50.986;5.826;2023-01-31T02:13:01;101882.94;;;16.77;40.15
26563;BME280;14217;50.986;5.826;2023-01-31T02:18:03;101871.50;;;16.77;40.45
26563;BME280;14217;50.986;5.826;2023-01-31T02:39:30;101881.22;;;16.76;40.31
26563;BME280;14217;50.986;5.826;2023-01-31T02:44:55;101895.34;;;16.75;40.13
26563;BME280;14217;50.986;5.826;2023-01-31T02:50:13;101886.53;;;16.75;40.22
26563;BME280;14217;50.986;5.826;2023-01-31T02:55:29;101889.16;;;16.76;40.36
26563;BME280;14217;50.986;5.826;2023-01-31T03:00:55;101895.34;;;16.75;40.07
26563;BME280;14217;50.986;5.826;2023-01-31T03:11:12;101884.75;;;16.75;40.24
26563;BME280;14217;50.986;5.826;2023-01-31T03:16:27;101873.28;;;16.76;40.35
26563;BME280;14217;50.986;5.826;2023-01-31T03:21:58;101868.88;;;16.75;40.38
26563;BME280;14217;50.986;5.826;2023-01-31T03:27:02;101853.84;;;16.76;40.22
26563;BME280;14217;50.986;5.826;2023-01-31T03:32:09;101849.38;;;16.79;39.96
26563;BME280;14217;50.986;5.826;2023-01-31T03:37:31;101847.69;;;16.75;40.12
26563;BME280;14217;50.986;5.826;2023-01-31T03:42:52;101856.47;;;16.77;40.11
26563;BME280;14217;50.986;5.826;2023-01-31T03:47:57;101849.47;;;16.75;39.96
26563;BME280;14217;50.986;5.826;2023-01-31T03:58:12;101852.94;;;16.78;40.18
26563;BME280;14217;50.986;5.826;2023-01-31T04:03:43;101850.38;;;16.74;40.13
26563;BME280;14217;50.986;5.826;2023-01-31T04:08:46;101850.28;;;16.78;40.15
26563;BME280;14217;50.986;5.826;2023-01-31T04:13:48;101848.50;;;16.79;39.94
26563;BME280;14217;50.986;5.826;2023-01-31T04:18:50;101853.84;;;16.77;39.95
26563;BME280;14217;50.986;5.826;2023-01-31T04:23:52;101846.84;;;16.75;39.87
26563;BME280;14217;50.986;5.826;2023-01-31T04:28:54;101841.50;;;16.76;39.97
26563;BME280;14217;50.986;5.826;2023-01-31T04:33:56;101843.22;;;16.80;39.78
26563;BME280;14217;50.986;5.826;2023-01-31T04:38:58;101838.78;;;16.79;40.02
26563;BME280;14217;50.986;5.826;2023-01-31T04:44:01;101838.03;;;16.74;40.23
26563;BME280;14217;50.986;5.826;2023-01-31T04:49:03;101846.81;;;16.76;40.26
26563;BME280;14217;50.986;5.826;2023-01-31T04:54:05;101845.97;;;16.74;39.92
26563;BME280;14217;50.986;5.826;2023-01-31T04:59:07;101832.75;;;16.74;39.97
26563;BME280;14217;50.986;5.826;2023-01-31T05:04:09;101830.88;;;16.78;40.13
26563;BME280;14217;50.986;5.826;2023-01-31T05:09:12;101816.78;;;16.77;40.19
26563;BME280;14217;50.986;5.826;2023-01-31T05:14:14;101819.44;;;16.77;39.90
26563;BME280;14217;50.986;5.826;2023-01-31T05:19:16;101813.28;;;16.77;39.88
26563;BME280;14217;50.986;5.826;2023-01-31T05:24:18;101800.13;;;16.72;40.14
26563;BME280;14217;50.986;5.826;2023-01-31T05:29:21;101786.81;;;16.75;40.17
26563;BME280;14217;50.986;5.826;2023-01-31T05:34:24;101782.38;;;16.77;40.09
26563;BME280;14217;50.986;5.826;2023-01-31T05:39:27;101781.56;;;16.74;39.94
26563;BME280;14217;50.986;5.826;2023-01-31T05:44:29;101773.59;;;16.75;39.77
26563;BME280;14217;50.986;5.826;2023-01-31T05:49:33;101760.47;;;16.71;40.02
26563;BME280;14217;50.986;5.826;2023-01-31T05:54:35;101758.56;;;16.76;39.92
26563;BME280;14217;50.986;5.826;2023-01-31T05:59:36;101743.63;;;16.75;40.00
26563;BME280;14217;50.986;5.826;2023-01-31T06:04:42;101748.88;;;16.76;39.89
26563;BME280;14217;50.986;5.826;2023-01-31T06:09:44;101772.78;;;16.72;40.11
26563;BME280;14217;50.986;5.826;2023-01-31T06:14:46;101766.50;;;16.77;39.99
26563;BME280;14217;50.986;5.826;2023-01-31T06:19:49;101758.66;;;16.73;39.71
26563;BME280;14217;50.986;5.826;2023-01-31T06:24:52;101755.09;;;16.74;39.99
26563;BME280;14217;50.986;5.826;2023-01-31T06:29:54;101763.03;;;16.74;39.84
26563;BME280;14217;50.986;5.826;2023-01-31T06:34:57;101768.38;;;16.72;39.79
26563;BME280;14217;50.986;5.826;2023-01-31T06:39:59;101775.34;;;16.76;39.88
26563;BME280;14217;50.986;5.826;2023-01-31T06:45:01;101774.53;;;16.73;39.73
26563;BME280;14217;50.986;5.826;2023-01-31T06:50:03;101793.91;;;16.75;40.01
26563;BME280;14217;50.986;5.826;2023-01-31T06:55:06;101774.47;;;16.76;39.81
26563;BME280;14217;50.986;5.826;2023-01-31T07:00:08;101799.22;;;16.73;39.78
26563;BME280;14217;50.986;5.826;2023-01-31T07:05:11;101788.63;;;16.73;39.92
26563;BME280;14217;50.986;5.826;2023-01-31T07:10:12;101798.34;;;16.74;39.84
26563;BME280;14217;50.986;5.826;2023-01-31T07:15:14;101796.56;;;16.73;39.70
26563;BME280;14217;50.986;5.826;2023-01-31T07:20:17;101787.75;;;16.74;39.77
26563;BME280;14217;50.986;5.826;2023-01-31T07:25:19;101776.25;;;16.74;39.91
26563;BME280;14217;50.986;5.826;2023-01-31T07:30:21;101774.56;;;16.71;40.46
26563;BME280;14217;50.986;5.826;2023-01-31T07:35:23;101778.03;;;16.75;40.17
26563;BME280;14217;50.986;5.826;2023-01-31T07:40:25;101773.69;;;16.72;40.45
26563;BME280;14217;50.986;5.826;2023-01-31T07:45:27;101779.88;;;16.70;40.47
26563;BME280;14217;50.986;5.826;2023-01-31T07:50:30;101784.25;;;16.72;40.31
26563;BME280;14217;50.986;5.826;2023-01-31T07:55:32;101767.44;;;16.75;40.66
26563;BME280;14217;50.986;5.826;2023-01-31T08:00:34;101770.06;;;16.76;40.35
26563;BME280;14217;50.986;5.826;2023-01-31T08:05:54;101760.38;;;16.74;40.41
26563;BME280;14217;50.986;5.826;2023-01-31T08:10:57;101761.19;;;16.77;40.18
26563;BME280;14217;50.986;5.826;2023-01-31T08:15:59;101744.50;;;16.74;40.17
26563;BME280;14217;50.986;5.826;2023-01-31T08:21:01;101751.66;;;16.70;40.80
26563;BME280;14217;50.986;5.826;2023-01-31T08:26:05;101759.66;;;16.67;40.71
26563;BME280;14217;50.986;5.826;2023-01-31T08:31:12;101760.38;;;16.74;40.23
26563;BME280;14217;50.986;5.826;2023-01-31T08:41:23;101740.06;;;16.76;40.17
26563;BME280;14217;50.986;5.826;2023-01-31T08:46:28;101731.72;;;16.55;40.36
26563;BME280;14217;50.986;5.826;2023-01-31T08:51:32;101730.75;;;16.59;40.55
26563;BME280;14217;50.986;5.826;2023-01-31T08:56:33;101727.13;;;16.63;40.21
26563;BME280;14217;50.986;5.826;2023-01-31T09:01:35;101723.41;;;16.71;40.08
26563;BME280;14217;50.986;5.826;2023-01-31T09:06:38;101699.63;;;16.69;39.94
26563;BME280;14217;50.986;5.826;2023-01-31T09:11:40;101683.97;;;16.60;40.44
26563;BME280;14217;50.986;5.826;2023-01-31T09:16:42;101707.63;;;16.67;40.41
26563;BME280;14217;50.986;5.826;2023-01-31T09:21:46;101702.28;;;16.69;40.12
26563;BME280;14217;50.986;5.826;2023-01-31T09:26:48;101696.09;;;16.70;40.21
26563;BME280;14217;50.986;5.826;2023-01-31T09:31:51;101695.97;;;16.75;39.91
26563;BME280;14217;50.986;5.826;2023-01-31T09:36:53;101701.25;;;16.76;39.58
26563;BME280;14217;50.986;5.826;2023-01-31T09:42:21;101688.03;;;16.75;39.84
26563;BME280;14217;50.986;5.826;2023-01-31T09:47:27;101691.56;;;16.75;40.04
26563;BME280;14217;50.986;5.826;2023-01-31T09:52:31;101674.72;;;16.78;39.67
26563;BME280;14217;50.986;5.826;2023-01-31T10:13:46;101672.13;;;16.76;41.08
26563;BME280;14217;50.986;5.826;2023-01-31T10:18:56;101650.97;;;16.76;40.91
26563;BME280;14217;50.986;5.826;2023-01-31T10:24:10;101645.59;;;16.81;40.99
26563;BME280;14217;50.986;5.826;2023-01-31T10:29:23;101660.72;;;16.74;40.86
26563;BME280;14217;50.986;5.826;2023-01-31T10:34:39;101639.44;;;16.77;40.93
26563;BME280;14217;50.986;5.826;2023-01-31T10:39:53;101605.88;;;16.79;40.89
26563;BME280;14217;50.986;5.826;2023-01-31T10:45:20;101630.63;;;16.78;40.66
26563;BME280;14217;50.986;5.826;2023-01-31T10:50:31;101615.53;;;16.82;40.79
26563;BME280;14217;50.986;5.826;2023-01-31T11:01:05;101574.13;;;16.81;40.82
26563;BME280;14217;50.986;5.826;2023-01-31T11:06:10;101576.78;;;16.81;40.67
26563;BME280;14217;50.986;5.826;2023-01-31T11:11:15;101584.69;;;16.82;40.65
26563;BME280;14217;50.986;5.826;2023-01-31T11:16:18;101574.09;;;16.82;40.68
26563;BME280;14217;50.986;5.826;2023-01-31T11:21:26;101604.09;;;16.81;40.76
26563;BME280;14217;50.986;5.826;2023-01-31T11:26:37;101574.09;;;16.82;40.66
26563;BME280;14217;50.986;5.826;2023-01-31T11:31:42;101574.94;;;16.83;40.44
26563;BME280;14217;50.986;5.826;2023-01-31T11:36:48;101577.50;;;16.86;40.59
26563;BME280;14217;50.986;5.826;2023-01-31T11:41:50;101572.03;;;16.94;43.29
26563;BME280;14217;50.986;5.826;2023-01-31T11:46:55;101569.50;;;16.89;43.68
26563;BME280;14217;50.986;5.826;2023-01-31T11:57:21;101541.44;;;16.82;42.66
26563;BME280;14217;50.986;5.826;2023-01-31T12:02:32;101532.78;;;16.74;42.44
26563;BME280;14217;50.986;5.826;2023-01-31T12:07:48;101532.72;;;16.77;42.14
26563;BME280;14217;50.986;5.826;2023-01-31T12:12:51;101517.75;;;16.76;42.25
26563;BME280;14217;50.986;5.826;2023-01-31T12:17:53;101529.28;;;16.73;42.25
26563;BME280;14217;50.986;5.826;2023-01-31T12:45:17;101534.72;;;16.67;41.90
26563;BME280;14217;50.986;5.826;2023-01-31T12:50:38;101526.66;;;16.72;41.90
26563;BME280;14217;50.986;5.826;2023-01-31T12:56:13;101524.28;;;16.62;42.02
26563;BME280;14217;50.986;5.826;2023-01-31T13:01:45;101522.28;;;16.72;42.00
26563;BME280;14217;50.986;5.826;2023-01-31T13:06:52;101524.91;;;16.72;41.75
26563;BME280;14217;50.986;5.826;2023-01-31T13:12:15;101520.72;;;16.63;42.09
26563;BME280;14217;50.986;5.826;2023-01-31T13:17:23;101514.41;;;16.69;41.67
26563;BME280;14217;50.986;5.826;2023-01-31T13:22:30;101519.53;;;16.75;41.69
26563;BME280;14217;50.986;5.826;2023-01-31T13:27:37;101521.22;;;16.78;41.38
26563;BME280;14217;50.986;5.826;2023-01-31T13:32:45;101529.25;;;16.75;41.67
26563;BME280;14217;50.986;5.826;2023-01-31T13:37:52;101524.75;;;16.78;41.43
26563;BME280;14217;50.986;5.826;2023-01-31T13:43:01;101524.69;;;16.80;41.70
26563;BME280;14217;50.986;5.826;2023-01-31T13:48:06;101513.25;;;16.79;41.53
26563;BME280;14217;50.986;5.826;2023-01-31T13:53:15;101524.75;;;16.78;41.57
26563;BME280;14217;50.986;5.826;2023-01-31T14:03:26;101522.91;;;16.82;41.65
26563;BME280;14217;50.986;5.826;2023-01-31T14:14:17;101515.03;;;16.80;42.86
26563;BME280;14217;50.986;5.826;2023-01-31T14:40:44;101517.69;;;16.79;42.64
26563;BME280;14217;50.986;5.826;2023-01-31T14:46:15;101503.53;;;16.81;42.52
26563;BME280;14217;50.986;5.826;2023-01-31T15:01:54;101522.81;;;16.86;42.30
26563;BME280;14217;50.986;5.826;2023-01-31T15:06:57;101548.34;;;16.88;42.37
26563;BME280;14217;50.986;5.826;2023-01-31T15:11:59;101550.19;;;16.85;42.25
26563;BME280;14217;50.986;5.826;2023-01-31T15:17:21;101556.47;;;16.81;42.57
26563;BME280;14217;50.986;5.826;2023-01-31T15:22:38;101560.75;;;16.85;42.48
26563;BME280;14217;50.986;5.826;2023-01-31T15:27:42;101560.78;;;16.84;42.61
26563;BME280;14217;50.986;5.826;2023-01-31T15:32:55;101561.69;;;16.84;44.38
26563;BME280;14217;50.986;5.826;2023-01-31T15:38:04;101573.44;;;17.07;43.23
26563;BME280;14217;50.986;5.826;2023-01-31T15:43:33;101565.75;;;16.98;43.52
26563;BME280;14217;50.986;5.826;2023-01-31T15:48:42;101565.19;;;16.85;43.24
26563;BME280;14217;50.986;5.826;2023-01-31T15:53:45;101569.75;;;16.78;43.12
26563;BME280;14217;50.986;5.826;2023-01-31T15:58:50;101575.81;;;16.83;42.81
26563;BME280;14217;50.986;5.826;2023-01-31T16:03:55;101581.69;;;16.95;42.64
26563;BME280;14217;50.986;5.826;2023-01-31T16:08:59;101581.81;;;16.90;42.81
26563;BME280;14217;50.986;5.826;2023-01-31T16:14:04;101596.22;;;16.78;43.15
26563;BME280;14217;50.986;5.826;2023-01-31T16:19:06;101591.84;;;16.76;43.71
26563;BME280;14217;50.986;5.826;2023-01-31T16:24:15;101598.03;;;16.76;44.75
26563;BME280;14217;50.986;5.826;2023-01-31T16:29:19;101602.38;;;16.80;44.47
26563;BME280;14217;50.986;5.826;2023-01-31T16:34:33;101600.34;;;16.90;43.86
26563;BME280;14217;50.986;5.826;2023-01-31T16:39:47;101600.22;;;16.95;43.91
26563;BME280;14217;50.986;5.826;2023-01-31T16:44:51;101607.16;;;16.99;43.52
26563;BME280;14217;50.986;5.826;2023-01-31T16:55:19;101601.09;;;17.28;42.59
26563;BME280;14217;50.986;5.826;2023-01-31T17:10:32;101587.47;;;17.11;42.68
26563;BME280;14217;50.986;5.826;2023-01-31T17:15:35;101601.72;;;17.05;42.67
26563;BME280;14217;50.986;5.826;2023-01-31T17:20:45;101586.00;;;16.99;43.04
26563;BME280;14217;50.986;5.826;2023-01-31T17:25:49;101581.84;;;16.89;43.85
26563;BME280;14217;50.986;5.826;2023-01-31T17:30:51;101593.31;;;16.89;43.87
26563;BME280;14217;50.986;5.826;2023-01-31T17:35:53;101596.09;;;16.84;43.76
26563;BME280;14217;50.986;5.826;2023-01-31T17:40:55;101599.50;;;16.88;43.84
26563;BME280;14217;50.986;5.826;2023-01-31T17:45:57;101585.28;;;16.92;43.69
26563;BME280;14217;50.986;5.826;2023-01-31T17:50:59;101579.88;;;16.97;43.49
26563;BME280;14217;50.986;5.826;2023-01-31T17:56:02;101578.81;;;17.04;43.02
26563;BME280;14217;50.986;5.826;2023-01-31T18:01:07;101563.09;;;16.98;43.40
26563;BME280;14217;50.986;5.826;2023-01-31T18:06:10;101583.34;;;16.99;43.45
26563;BME280;14217;50.986;5.826;2023-01-31T18:11:14;101580.03;;;16.91;43.99
26563;BME280;14217;50.986;5.826;2023-01-31T18:16:18;101567.84;;;16.85;46.27
26563;BME280;14217;50.986;5.826;2023-01-31T18:21:23;101572.97;;;16.91;45.73
26563;BME280;14217;50.986;5.826;2023-01-31T18:26:25;101559.78;;;16.90;45.24
26563;BME280;14217;50.986;5.826;2023-01-31T18:31:27;101564.66;;;17.05;44.99
26563;BME280;14217;50.986;5.826;2023-01-31T18:36:29;101575.25;;;17.05;44.70
26563;BME280;14217;50.986;5.826;2023-01-31T18:41:31;101571.59;;;17.09;45.04
26563;BME280;14217;50.986;5.826;2023-01-31T18:46:33;101576.06;;;17.07;44.86
26563;BME280;14217;50.986;5.826;2023-01-31T18:51:35;101584.13;;;17.04;44.73
26563;BME280;14217;50.986;5.826;2023-01-31T18:56:37;101589.31;;;17.07;44.32
26563;BME280;14217;50.986;5.826;2023-01-31T19:01:39;101579.72;;;17.03;44.46
26563;BME280;14217;50.986;5.826;2023-01-31T19:06:43;101592.78;;;17.09;44.23
26563;BME280;14217;50.986;5.826;2023-01-31T19:11:47;101593.72;;;17.08;43.93
26563;BME280;14217;50.986;5.826;2023-01-31T19:16:49;101598.34;;;17.00;43.92
26563;BME280;14217;50.986;5.826;2023-01-31T19:21:51;101602.56;;;17.07;43.85
26563;BME280;14217;50.986;5.826;2023-01-31T19:26:53;101599.78;;;17.12;43.79
26563;BME280;14217;50.986;5.826;2023-01-31T19:31:56;101598.91;;;17.11;43.50
26563;BME280;14217;50.986;5.826;2023-01-31T19:36:58;101605.03;;;17.13;43.46
26563;BME280;14217;50.986;5.826;2023-01-31T19:42:00;101603.03;;;17.23;42.99
26563;BME280;14217;50.986;5.826;2023-01-31T19:47:02;101608.44;;;17.18;43.38
26563;BME280;14217;50.986;5.826;2023-01-31T19:52:05;101609.28;;;17.20;42.96
26563;BME280;14217;50.986;5.826;2023-01-31T19:57:07;101612.25;;;17.08;43.21
26563;BME280;14217;50.986;5.826;2023-01-31T20:02:09;101613.31;;;17.01;43.57
26563;BME280;14217;50.986;5.826;2023-01-31T20:07:14;101601.72;;;17.05;43.68
26563;BME280;14217;50.986;5.826;2023-01-31T20:12:15;101627.34;;;17.04;43.95
26563;BME280;14217;50.986;5.826;2023-01-31T20:17:18;101630.00;;;17.03;43.88
26563;BME280;14217;50.986;5.826;2023-01-31T20:22:20;101612.63;;;16.93;44.63
26563;BME280;14217;50.986;5.826;2023-01-31T20:27:25;101596.69;;;16.96;44.52
26563;BME280;14217;50.986;5.826;2023-01-31T20:32:27;101610.81;;;16.95;44.27
26563;BME280;14217;50.986;5.826;2023-01-31T20:37:29;101600.22;;;16.95;44.53
26563;BME280;14217;50.986;5.826;2023-01-31T20:42:31;101599.22;;;16.99;44.50
26563;BME280;14217;50.986;5.826;2023-01-31T20:47:33;101600.84;;;17.06;44.26
26563;BME280;14217;50.986;5.826;2023-01-31T20:52:35;101605.72;;;17.21;43.84
26563;BME280;14217;50.986;5.826;2023-01-31T20:57:37;101611.63;;;17.31;43.15
26563;BME280;14217;50.986;5.826;2023-01-31T21:02:39;101607.28;;;17.28;43.06
26563;BME280;14217;50.986;5.826;2023-01-31T21:07:41;101602.19;;;17.21;43.32
26563;BME280;14217;50.986;5.826;2023-01-31T21:12:44;101597.78;;;17.20;43.46
26563;BME280;14217;50.986;5.826;2023-01-31T21:17:46;101597.78;;;17.20;43.20
26563;BME280;14217;50.986;5.826;2023-01-31T21:22:48;101598.75;;;17.17;43.14
26563;BME280;14217;50.986;5.826;2023-01-31T21:27:50;101596.03;;;17.20;43.07
26563;BME280;14217;50.986;5.826;2023-01-31T21:32:52;101585.38;;;17.22;43.07
26563;BME280;14217;50.986;5.826;2023-01-31T21:37:54;101578.22;;;17.25;42.76
26563;BME280;14217;50.986;5.826;2023-01-31T21:42:56;101572.25;;;17.19;43.04
26563;BME280;14217;50.986;5.826;2023-01-31T21:47:57;101567.94;;;17.15;43.20
26563;BME280;14217;50.986;5.826;2023-01-31T21:53:18;101561.81;;;17.13;43.75
26563;BME280;14217;50.986;5.826;2023-01-31T21:58:20;101562.94;;;17.04;45.36
26563;BME280;14217;50.986;5.826;2023-01-31T22:03:22;101555.75;;;17.40;44.01
26563;BME280;14217;50.986;5.826;2023-01-31T22:08:24;101542.81;;;17.30;44.23
26563;BME280;14217;50.986;5.826;2023-01-31T22:13:26;101523.44;;;17.27;43.98
26563;BME280;14217;50.986;5.826;2023-01-31T22:18:28;101512.84;;;17.27;44.10
26563;BME280;14217;50.986;5.826;2023-01-31T22:23:32;101519.19;;;17.22;44.21
26563;BME280;14217;50.986;5.826;2023-01-31T22:28:34;101515.66;;;17.21;44.17
26563;BME280;14217;50.986;5.826;2023-01-31T22:33:39;101511.22;;;17.22;43.78
26563;BME280;14217;50.986;5.826;2023-01-31T22:38:44;101514.81;;;17.21;43.97
26563;BME280;14217;50.986;5.826;2023-01-31T22:43:48;101502.47;;;17.20;43.53
26563;BME280;14217;50.986;5.826;2023-01-31T22:48:52;101500.59;;;17.23;43.50
26563;BME280;14217;50.986;5.826;2023-01-31T22:53:55;101507.03;;;17.15;43.86
26563;BME280;14217;50.986;5.826;2023-01-31T22:59:01;101504.25;;;17.19;43.51
26563;BME280;14217;50.986;5.826;2023-01-31T23:04:06;101509.47;;;17.22;43.47
26563;BME280;14217;50.986;5.826;2023-01-31T23:09:08;101495.41;;;17.20;43.65
26563;BME280;14217;50.986;5.826;2023-01-31T23:14:10;101496.25;;;17.21;43.49
26563;BME280;14217;50.986;5.826;2023-01-31T23:19:13;101498.09;;;17.19;43.39
26563;BME280;14217;50.986;5.826;2023-01-31T23:24:15;101504.28;;;17.18;43.51
26563;BME280;14217;50.986;5.826;2023-01-31T23:29:17;101506.00;;;17.20;43.40
26563;BME280;14217;50.986;5.826;2023-01-31T23:34:19;101516.59;;;17.20;43.33
26563;BME280;14217;50.986;5.826;2023-01-31T23:39:21;101519.25;;;17.20;43.16
26563;BME280;14217;50.986;5.826;2023-01-31T23:44:23;101509.56;;;17.18;43.08
26563;BME280;14217;50.986;5.826;2023-01-31T23:49:25;101518.34;;;17.20;43.26
26563;BME280;14217;50.986;5.826;2023-01-31T23:54:28;101522.78;;;17.19;43.32
26563;BME280;14217;50.986;5.826;2023-01-31T23:59:30;101523.78;;;17.15;43.19
